Time;durP1;ratioP1;P1;durP2;ratioP2;P2;SDS_P1;SDS_P2;PMS_P1;PMS_P2;Temp;Humidity;BMP_temperature;BMP_pressure;BME280_temperature;BME280_humidity;BME280_pressure;Samples;Min_cycle;Max_cycle;Signal;HPM_P1;HPM_P2
2022/10/12 00:00:34;;;;;;;9.10;5.17;;;7.80;99.90;;;;;;5026735;28;20189;-73
2022/10/12 00:03:00;;;;;;;13.10;5.90;;;7.80;99.90;;;;;;5017138;28;20223;-74
2022/10/12 00:05:26;;;;;;;12.63;4.60;;;7.80;99.90;;;;;;5027834;28;20193;-75
2022/10/12 00:07:51;;;;;;;12.10;5.30;;;7.80;99.90;;;;;;5017307;28;20241;-74
2022/10/12 00:10:17;;;;;;;8.63;4.33;;;7.80;99.90;;;;;;5029316;28;20193;-73
2022/10/12 00:12:43;;;;;;;11.43;4.77;;;7.80;99.90;;;;;;5028696;28;20184;-73
2022/10/12 00:15:09;;;;;;;9.50;4.83;;;7.70;99.90;;;;;;5035510;28;20411;-73
2022/10/12 00:17:35;;;;;;;10.70;4.10;;;7.70;99.90;;;;;;5037883;28;20177;-73
2022/10/12 00:20:00;;;;;;;10.50;3.93;;;7.70;99.90;;;;;;5027728;28;20469;-73
2022/10/12 00:22:26;;;;;;;11.57;5.07;;;7.70;99.90;;;;;;5031280;28;20181;-73
2022/10/12 00:24:52;;;;;;;8.60;4.90;;;7.70;99.90;;;;;;5033242;28;20255;-74
2022/10/12 00:27:17;;;;;;;9.93;4.90;;;7.70;99.90;;;;;;5008959;28;20546;-75
2022/10/12 00:29:43;;;;;;;9.03;5.20;;;7.70;99.90;;;;;;5035173;28;20431;-75
2022/10/12 00:32:09;;;;;;;12.37;4.60;;;7.70;99.90;;;;;;5026250;28;20223;-75
2022/10/12 00:34:34;;;;;;;7.30;4.13;;;7.60;99.90;;;;;;5019607;28;20176;-75
2022/10/12 00:37:00;;;;;;;8.57;4.77;;;7.60;99.90;;;;;;5025792;28;20411;-73
2022/10/12 00:39:26;;;;;;;7.47;4.60;;;7.60;99.90;;;;;;5011224;28;20203;-74
2022/10/12 00:41:51;;;;;;;6.00;3.77;;;7.60;99.90;;;;;;5016304;28;20648;-75
2022/10/12 00:44:37;;;;;;;11.03;6.13;;;7.50;99.90;;;;;;5022208;28;20266;-74
2022/10/12 00:47:15;;;;;;;10.47;5.43;;;7.50;99.90;;;;;;5025747;28;20178;-74
2022/10/12 00:49:42;;;;;;;11.03;4.77;;;7.50;99.90;;;;;;5008027;28;20423;-74
2022/10/12 00:52:11;;;;;;;18.13;4.87;;;7.50;99.90;;;;;;5020437;28;20413;-74
2022/10/12 00:54:43;;;;;;;14.10;5.20;;;7.50;99.90;;;;;;5022341;28;20414;-73
2022/10/12 00:57:12;;;;;;;6.13;5.20;;;7.40;99.90;;;;;;5014854;28;20441;-73
2022/10/12 00:59:51;;;;;;;12.17;5.97;;;7.40;99.90;;;;;;5027012;28;20451;-73
2022/10/12 01:02:17;;;;;;;6.47;4.20;;;7.30;99.90;;;;;;5017952;28;20509;-73
2022/10/12 01:04:44;;;;;;;8.50;5.03;;;7.40;99.90;;;;;;5017851;28;20491;-73
2022/10/12 01:07:10;;;;;;;6.93;4.40;;;7.30;99.90;;;;;;5025127;28;20414;-73
2022/10/12 01:09:36;;;;;;;7.13;4.43;;;7.30;99.90;;;;;;5012435;28;20430;-74
2022/10/12 01:12:06;;;;;;;11.37;5.67;;;7.30;99.90;;;;;;5023700;28;20177;-74
2022/10/12 01:14:31;;;;;;;11.60;4.37;;;7.30;99.90;;;;;;5021299;28;20275;-75
2022/10/12 01:17:29;;;;;;;7.20;5.30;;;7.30;99.90;;;;;;5026445;28;20830;-75
2022/10/12 01:20:18;;;;;;;10.00;5.30;;;7.30;99.90;;;;;;5002146;28;20211;-75
2022/10/12 01:22:58;;;;;;;7.57;4.63;;;7.20;99.90;;;;;;5039350;23;20572;-70
2022/10/12 01:25:46;;;;;;;8.30;5.17;;;7.20;99.90;;;;;;5018966;28;20460;-70
2022/10/12 01:28:32;;;;;;;8.00;4.43;;;7.10;99.90;;;;;;5028951;28;20415;-70
2022/10/12 01:31:14;;;;;;;10.97;5.47;;;7.10;99.90;;;;;;5035364;28;20398;-70
2022/10/12 01:33:51;;;;;;;8.47;4.90;;;7.10;99.90;;;;;;5016968;28;20928;-70
2022/10/12 01:36:34;;;;;;;12.63;5.07;;;7.10;99.90;;;;;;5040490;28;20456;-71
2022/10/12 01:39:11;;;;;;;11.10;4.73;;;7.10;99.90;;;;;;5026670;28;20442;-70
2022/10/12 01:41:45;;;;;;;9.33;4.70;;;7.10;99.90;;;;;;5042244;28;20777;-70
2022/10/12 01:44:11;;;;;;;13.83;5.23;;;7.10;99.90;;;;;;5042849;28;20501;-70
2022/10/12 01:46:39;;;;;;;7.10;4.27;;;7.00;99.90;;;;;;5044371;28;20442;-70
2022/10/12 01:49:05;;;;;;;6.80;5.40;;;7.00;99.90;;;;;;5043669;28;20414;-71
2022/10/12 01:51:42;;;;;;;8.90;4.90;;;7.00;99.90;;;;;;5034747;28;20493;-70
2022/10/12 01:54:11;;;;;;;10.63;5.60;;;7.00;99.90;;;;;;5040503;28;20430;-70
2022/10/12 01:56:36;;;;;;;9.23;5.87;;;7.00;99.90;;;;;;5040823;28;20456;-69
2022/10/12 01:59:18;;;;;;;7.03;4.73;;;7.00;99.90;;;;;;5041860;28;20418;-70
2022/10/12 02:01:55;;;;;;;6.70;4.33;;;7.00;99.90;;;;;;5038499;28;20182;-70
2022/10/12 02:04:33;;;;;;;11.07;4.50;;;7.00;99.90;;;;;;5038563;28;20989;-70
2022/10/12 02:07:09;;;;;;;17.40;5.10;;;7.00;99.90;;;;;;5040328;28;20410;-70
2022/10/12 02:09:36;;;;;;;6.43;3.87;;;6.90;99.90;;;;;;5010820;28;20398;-70
2022/10/12 02:12:23;;;;;;;7.97;4.00;;;6.90;99.90;;;;;;5040314;28;20407;-70
2022/10/12 02:14:54;;;;;;;10.93;5.90;;;6.90;99.90;;;;;;5037884;28;20421;-69
2022/10/12 02:17:21;;;;;;;13.47;5.50;;;6.90;99.90;;;;;;5038655;28;20437;-70
2022/10/12 02:19:53;;;;;;;8.47;3.63;;;6.90;99.90;;;;;;5039382;28;20414;-69
2022/10/12 02:22:19;;;;;;;7.17;4.83;;;6.90;99.90;;;;;;5030100;28;20475;-71
2022/10/12 02:24:47;;;;;;;5.60;4.10;;;6.90;99.90;;;;;;5033752;28;20812;-69
2022/10/12 02:27:14;;;;;;;11.20;4.27;;;6.90;99.90;;;;;;5039910;28;20402;-70
2022/10/12 02:29:43;;;;;;;6.47;3.67;;;6.90;99.90;;;;;;5044540;28;20407;-70
2022/10/12 02:32:56;;;;;;;8.67;4.47;;;6.90;99.90;;;;;;5043702;28;20430;-70
2022/10/12 02:35:25;;;;;;;8.10;4.33;;;6.90;99.90;;;;;;5041351;28;20445;-70
2022/10/12 02:38:15;;;;;;;9.10;4.40;;;6.80;99.90;;;;;;5041443;28;20417;-71
2022/10/12 02:40:48;;;;;;;5.40;4.00;;;6.90;99.90;;;;;;5038625;28;20949;-70
2022/10/12 02:43:26;;;;;;;6.53;3.77;;;6.80;99.90;;;;;;5044275;28;20452;-70
2022/10/12 02:45:55;;;;;;;9.50;4.40;;;6.80;99.90;;;;;;5045128;28;20450;-70
2022/10/12 02:48:23;;;;;;;9.13;3.87;;;6.80;99.90;;;;;;5043227;28;20410;-71
2022/10/12 02:50:52;;;;;;;7.43;4.57;;;6.80;99.90;;;;;;5034972;28;20431;-70
2022/10/12 02:53:20;;;;;;;7.13;4.60;;;6.80;99.90;;;;;;5042946;28;20426;-70
2022/10/12 02:55:54;;;;;;;9.07;4.70;;;6.80;99.90;;;;;;5039752;28;20450;-71
2022/10/12 02:58:20;;;;;;;8.60;4.63;;;6.80;99.90;;;;;;5038068;28;20943;-70
2022/10/12 03:00:46;;;;;;;8.50;4.90;;;6.80;99.90;;;;;;5039107;28;20438;-69
2022/10/12 03:03:11;;;;;;;7.10;4.43;;;6.80;99.90;;;;;;5037132;28;20221;-70
2022/10/12 03:05:37;;;;;;;7.93;4.43;;;6.70;99.90;;;;;;5038078;28;20253;-70
2022/10/12 03:08:03;;;;;;;10.17;4.37;;;6.70;99.90;;;;;;5038101;28;20520;-70
2022/10/12 03:10:29;;;;;;;8.40;4.77;;;6.70;99.90;;;;;;5038332;28;20194;-70
2022/10/12 03:12:54;;;;;;;8.77;4.53;;;6.70;99.90;;;;;;5038938;28;20513;-70
2022/10/12 03:15:20;;;;;;;8.63;4.63;;;6.70;99.90;;;;;;5039200;28;20198;-70
2022/10/12 03:17:46;;;;;;;8.93;5.47;;;6.70;99.90;;;;;;5039276;28;20164;-71
2022/10/12 03:20:12;;;;;;;10.10;5.43;;;6.70;99.90;;;;;;5038159;28;20418;-71
2022/10/12 03:22:37;;;;;;;7.90;5.80;;;6.70;99.90;;;;;;5029087;28;20212;-71
2022/10/12 03:25:03;;;;;;;7.47;4.60;;;6.70;99.90;;;;;;5037955;28;20211;-71
2022/10/12 03:27:29;;;;;;;10.07;4.83;;;6.70;99.90;;;;;;5041362;28;20619;-70
2022/10/12 03:29:54;;;;;;;8.50;4.90;;;6.70;99.90;;;;;;5040582;28;20422;-71
2022/10/12 03:32:21;;;;;;;6.57;5.20;;;6.70;99.90;;;;;;5040495;28;20219;-71
2022/10/12 03:34:46;;;;;;;6.93;5.20;;;6.70;99.90;;;;;;5039746;28;20175;-71
2022/10/12 03:37:12;;;;;;;10.80;5.60;;;6.70;99.90;;;;;;5040174;28;20469;-69
2022/10/12 03:39:37;;;;;;;9.40;5.90;;;6.80;99.90;;;;;;5039981;28;20202;-70
2022/10/12 03:42:03;;;;;;;11.33;6.10;;;6.80;99.90;;;;;;5033559;28;20633;-70
2022/10/12 03:44:29;;;;;;;7.47;5.53;;;6.80;99.90;;;;;;5037529;28;20202;-68
2022/10/12 03:46:54;;;;;;;7.40;5.43;;;6.80;99.90;;;;;;5039011;28;20175;-70
2022/10/12 03:49:20;;;;;;;8.67;6.03;;;6.80;99.90;;;;;;5036938;28;20642;-70
2022/10/12 03:51:45;;;;;;;9.57;5.70;;;6.80;99.90;;;;;;5029774;28;20168;-70
2022/10/12 03:54:11;;;;;;;9.17;6.73;;;6.80;99.90;;;;;;5038647;28;20264;-71
2022/10/12 03:56:37;;;;;;;9.57;5.77;;;6.70;99.90;;;;;;5036533;28;20216;-71
2022/10/12 03:59:02;;;;;;;8.30;4.93;;;6.70;99.90;;;;;;5037849;28;20534;-70
2022/10/12 04:01:28;;;;;;;12.07;6.83;;;6.70;99.90;;;;;;5037783;28;20166;-71
2022/10/12 04:03:53;;;;;;;10.60;6.30;;;6.60;99.90;;;;;;5035512;28;20199;-70
2022/10/12 04:06:19;;;;;;;10.43;5.33;;;6.60;99.90;;;;;;5035450;28;20207;-70
2022/10/12 04:08:45;;;;;;;9.47;5.67;;;6.60;99.90;;;;;;5031740;28;20183;-70
2022/10/12 04:11:10;;;;;;;10.63;7.17;;;6.60;99.90;;;;;;5037168;28;20175;-70
2022/10/12 04:13:36;;;;;;;8.53;6.63;;;6.60;99.90;;;;;;5037891;28;20222;-71
2022/10/12 04:16:05;;;;;;;13.27;6.80;;;6.60;99.90;;;;;;5037253;28;20179;-71
2022/10/12 04:18:32;;;;;;;13.93;6.70;;;6.50;99.90;;;;;;5035383;28;20176;-70
2022/10/12 04:20:59;;;;;;;9.67;5.37;;;6.50;99.90;;;;;;5038042;28;20501;-71
2022/10/12 04:23:24;;;;;;;11.87;5.90;;;6.40;99.90;;;;;;5022300;28;20442;-70
2022/10/12 04:25:50;;;;;;;12.70;6.60;;;6.40;99.90;;;;;;5039119;28;21151;-71
2022/10/12 04:28:16;;;;;;;11.33;7.27;;;6.40;99.90;;;;;;5037861;28;20172;-71
2022/10/12 04:30:41;;;;;;;9.57;6.73;;;6.40;99.90;;;;;;5037446;28;20172;-70
2022/10/12 04:33:07;;;;;;;9.70;6.57;;;6.40;99.90;;;;;;5037163;28;20202;-70
2022/10/12 04:35:33;;;;;;;11.73;6.23;;;6.40;99.90;;;;;;5038569;28;20179;-70
2022/10/12 04:37:58;;;;;;;17.37;6.80;;;6.40;99.90;;;;;;5043553;28;20796;-70
2022/10/12 04:40:24;;;;;;;12.17;6.40;;;6.50;99.90;;;;;;5043736;28;20172;-70
2022/10/12 04:42:49;;;;;;;10.27;6.03;;;6.50;99.90;;;;;;5043643;28;20200;-70
2022/10/12 04:45:15;;;;;;;9.70;6.73;;;6.50;99.90;;;;;;5043012;28;20657;-71
2022/10/12 04:47:40;;;;;;;8.63;7.00;;;6.50;99.90;;;;;;5041829;28;20249;-70
2022/10/12 04:50:06;;;;;;;9.60;7.17;;;6.50;99.90;;;;;;5037744;28;20179;-70
2022/10/12 04:52:32;;;;;;;11.53;6.73;;;6.50;99.90;;;;;;5038237;28;20219;-70
2022/10/12 04:54:58;;;;;;;12.83;7.27;;;6.50;99.90;;;;;;5029880;28;20421;-70
2022/10/12 04:57:23;;;;;;;11.37;7.63;;;6.40;99.90;;;;;;5027004;28;20186;-71
2022/10/12 04:59:49;;;;;;;12.67;7.57;;;6.40;99.90;;;;;;5044962;28;20175;-70
2022/10/12 05:02:15;;;;;;;8.63;6.23;;;6.40;99.90;;;;;;5045747;28;20229;-70
2022/10/12 05:04:40;;;;;;;11.50;7.47;;;6.40;99.90;;;;;;5043630;28;20219;-70
2022/10/12 05:07:06;;;;;;;9.07;6.50;;;6.40;99.90;;;;;;5043388;28;20194;-69
2022/10/12 05:09:31;;;;;;;11.87;6.87;;;6.40;99.90;;;;;;5041304;28;20172;-73
2022/10/12 05:11:57;;;;;;;8.57;5.80;;;6.50;99.90;;;;;;5032126;28;20207;-71
2022/10/12 05:14:22;;;;;;;16.23;9.20;;;6.50;99.90;;;;;;5021770;28;20173;-68
2022/10/12 05:16:48;;;;;;;9.60;6.53;;;6.50;99.90;;;;;;5023783;28;20184;-69
2022/10/12 05:19:13;;;;;;;10.13;7.40;;;6.50;99.90;;;;;;5034660;28;20182;-69
2022/10/12 05:21:39;;;;;;;15.77;7.83;;;6.50;99.90;;;;;;5030576;28;20195;-68
2022/10/12 05:24:05;;;;;;;15.87;8.67;;;6.50;99.90;;;;;;5039696;28;20203;-69
2022/10/12 05:26:31;;;;;;;9.37;7.00;;;6.60;99.90;;;;;;5040692;28;20259;-69
2022/10/12 05:28:56;;;;;;;11.43;7.67;;;6.60;99.90;;;;;;5038039;28;20450;-69
2022/10/12 05:31:22;;;;;;;19.67;9.00;;;6.50;99.90;;;;;;5041800;28;20176;-71
2022/10/12 05:33:48;;;;;;;10.80;7.77;;;6.50;99.90;;;;;;5039941;28;20275;-70
2022/10/12 05:36:13;;;;;;;11.90;8.33;;;6.50;99.90;;;;;;5043182;28;20180;-70
2022/10/12 05:38:39;;;;;;;9.70;8.40;;;6.50;99.90;;;;;;5025712;28;20238;-71
2022/10/12 05:41:04;;;;;;;10.23;7.67;;;6.60;99.90;;;;;;5026128;28;20199;-72
2022/10/12 05:43:30;;;;;;;12.93;7.57;;;6.60;99.90;;;;;;5043712;28;20291;-70
2022/10/12 05:45:56;;;;;;;13.87;9.33;;;6.60;99.90;;;;;;5036814;28;20214;-72
2022/10/12 05:48:21;;;;;;;17.63;8.30;;;6.60;99.90;;;;;;5031458;28;20625;-70
2022/10/12 05:50:47;;;;;;;13.40;7.90;;;6.60;99.90;;;;;;5029820;28;20185;-70
2022/10/12 05:53:13;;;;;;;9.33;8.23;;;6.70;99.90;;;;;;5041346;28;20255;-71
2022/10/12 05:55:38;;;;;;;11.33;7.17;;;6.70;99.90;;;;;;5031842;28;20263;-70
2022/10/12 05:58:04;;;;;;;15.47;8.20;;;6.80;99.90;;;;;;5042352;28;20179;-69
2022/10/12 06:00:29;;;;;;;11.93;8.77;;;6.80;99.90;;;;;;5041998;28;20179;-70
2022/10/12 06:02:54;;;;;;;10.67;8.33;;;6.90;99.90;;;;;;5042861;28;20225;-71
2022/10/12 06:05:20;;;;;;;20.70;8.20;;;6.90;99.90;;;;;;5042183;28;20561;-71
2022/10/12 06:07:45;;;;;;;9.20;7.00;;;7.00;99.90;;;;;;5042718;28;20257;-69
2022/10/12 06:10:11;;;;;;;14.73;8.80;;;7.00;99.90;;;;;;5042531;28;20235;-70
2022/10/12 06:12:37;;;;;;;12.77;7.33;;;7.10;99.90;;;;;;5041991;28;20202;-70
2022/10/12 06:15:03;;;;;;;11.53;5.60;;;7.20;99.90;;;;;;5042681;28;20235;-69
2022/10/12 06:17:29;;;;;;;14.43;7.40;;;7.40;99.90;;;;;;5041688;28;20414;-71
2022/10/12 06:19:54;;;;;;;14.70;8.30;;;7.30;99.90;;;;;;5032308;28;20535;-70
2022/10/12 06:22:20;;;;;;;13.53;7.40;;;7.50;99.90;;;;;;5022757;28;20214;-69
2022/10/12 06:24:45;;;;;;;20.50;7.53;;;7.50;99.90;;;;;;5032256;28;20427;-68
2022/10/12 06:27:11;;;;;;;13.50;6.53;;;7.70;99.90;;;;;;5036532;28;20168;-69
2022/10/12 06:29:37;;;;;;;14.03;6.50;;;7.90;99.90;;;;;;5038209;28;20171;-69
2022/10/12 06:32:03;;;;;;;12.40;7.23;;;8.00;99.90;;;;;;5036073;28;20430;-69
2022/10/12 06:34:28;;;;;;;12.40;7.90;;;8.10;99.90;;;;;;5037290;28;20187;-69
2022/10/12 06:36:54;;;;;;;14.47;7.80;;;8.30;99.90;;;;;;5026060;28;20176;-70
2022/10/12 06:39:20;;;;;;;12.40;8.27;;;8.50;99.90;;;;;;5021151;28;20192;-69
2022/10/12 06:41:46;;;;;;;14.43;7.53;;;9.00;99.90;;;;;;5031619;28;20179;-70
2022/10/12 06:44:11;;;;;;;10.73;6.10;;;9.20;99.90;;;;;;5027301;28;20455;-69
2022/10/12 06:46:37;;;;;;;10.67;6.50;;;9.30;99.90;;;;;;5037807;28;20175;-68
2022/10/12 06:49:02;;;;;;;11.20;6.10;;;9.60;99.90;;;;;;5029444;28;20250;-69
2022/10/12 06:51:28;;;;;;;10.30;6.30;;;9.90;99.90;;;;;;5026794;28;20190;-69
2022/10/12 06:53:54;;;;;;;15.67;6.80;;;9.80;99.90;;;;;;5039286;28;20207;-69
2022/10/12 06:56:21;;;;;;;11.90;5.60;;;10.00;99.90;;;;;;5027384;28;20263;-69
2022/10/12 06:58:46;;;;;;;17.83;6.33;;;10.00;99.90;;;;;;5034237;28;20437;-69
2022/10/12 07:01:12;;;;;;;8.23;6.03;;;10.20;99.90;;;;;;5027796;28;20415;-69
2022/10/12 07:03:38;;;;;;;8.07;5.60;;;10.50;99.90;;;;;;5037514;28;20184;-69
2022/10/12 07:06:08;;;;;;;6.70;4.80;;;10.90;99.90;;;;;;5038098;28;20191;-69
2022/10/12 07:08:34;;;;;;;9.70;6.57;;;11.00;99.90;;;;;;5038582;28;20226;-69
2022/10/12 07:11:01;;;;;;;14.77;5.57;;;11.20;99.90;;;;;;5038329;28;20419;-69
2022/10/12 07:13:29;;;;;;;14.00;5.80;;;11.30;99.90;;;;;;5025878;28;20632;-70
2022/10/12 07:15:55;;;;;;;10.87;5.53;;;11.40;99.90;;;;;;5028369;28;20443;-70
2022/10/12 07:18:20;;;;;;;13.13;5.37;;;11.80;99.90;;;;;;5027108;28;20939;-70
2022/10/12 07:20:46;;;;;;;12.27;6.23;;;12.10;99.90;;;;;;5020562;28;20259;-69
2022/10/12 07:23:12;;;;;;;11.17;5.87;;;12.70;99.90;;;;;;5022273;28;20526;-69
2022/10/12 07:25:37;;;;;;;13.93;5.63;;;12.90;99.90;;;;;;5035403;28;20200;-70
2022/10/12 07:28:05;;;;;;;11.70;5.60;;;13.20;99.90;;;;;;5035884;28;20186;-69
2022/10/12 07:30:30;;;;;;;11.37;5.87;;;13.40;99.90;;;;;;5028434;28;20166;-70
2022/10/12 07:32:56;;;;;;;10.83;5.77;;;13.70;99.90;;;;;;5016477;28;20447;-69
2022/10/12 07:35:21;;;;;;;9.50;5.80;;;13.80;99.90;;;;;;5031521;28;20313;-69
2022/10/12 07:37:50;;;;;;;12.03;5.57;;;14.10;99.90;;;;;;5032363;28;20182;-69
2022/10/12 07:40:15;;;;;;;11.00;6.83;;;14.40;99.90;;;;;;5032666;28;20179;-69
2022/10/12 07:42:41;;;;;;;9.13;5.40;;;14.30;99.90;;;;;;5032036;28;20939;-69
2022/10/12 07:45:07;;;;;;;10.90;7.50;;;14.20;99.90;;;;;;5018776;28;20200;-69
2022/10/12 07:47:33;;;;;;;11.80;8.13;;;14.50;99.90;;;;;;5013549;28;20645;-69
2022/10/12 07:49:58;;;;;;;9.67;5.90;;;14.50;99.90;;;;;;5034023;28;20465;-69
2022/10/12 07:52:26;;;;;;;8.30;5.63;;;14.90;99.90;;;;;;5014933;28;20194;-69
2022/10/12 07:54:51;;;;;;;9.70;5.33;;;15.10;99.90;;;;;;5011282;28;20186;-69
2022/10/12 07:57:17;;;;;;;11.43;4.80;;;16.70;99.90;;;;;;5012860;28;20866;-69
2022/10/12 07:59:42;;;;;;;9.10;4.13;;;17.30;99.90;;;;;;5012894;28;20175;-69
2022/10/12 08:02:11;;;;;;;13.90;4.80;;;16.40;99.90;;;;;;5014195;28;20207;-69
2022/10/12 08:04:36;;;;;;;5.27;3.40;;;17.40;99.90;;;;;;5027211;28;20191;-69
2022/10/12 08:07:02;;;;;;;8.63;5.00;;;17.50;99.90;;;;;;5053427;28;20477;-70
2022/10/12 08:09:28;;;;;;;7.53;4.60;;;17.70;99.90;;;;;;5039389;28;20575;-70
2022/10/12 08:11:54;;;;;;;6.20;4.47;;;16.90;99.90;;;;;;5033183;28;20179;-72
2022/10/12 08:14:20;;;;;;;7.00;3.90;;;18.70;99.90;;;;;;5034655;28;20587;-69
2022/10/12 08:16:46;;;;;;;7.40;4.10;;;20.40;99.90;;;;;;5026412;28;20807;-73
2022/10/12 08:19:13;;;;;;;5.20;4.10;;;20.30;99.90;;;;;;5041956;28;20414;-72
2022/10/12 08:21:41;;;;;;;16.13;7.33;;;20.00;98.90;;;;;;5029160;28;20171;-71
2022/10/12 08:24:08;;;;;;;11.43;6.17;;;19.00;99.90;;;;;;5026556;28;20483;-75
2022/10/12 08:26:35;;;;;;;8.70;3.00;;;19.10;99.90;;;;;;5043670;28;20457;-71
2022/10/12 08:29:02;;;;;;;18.33;11.80;;;19.30;98.90;;;;;;5043617;28;20421;-71
2022/10/12 08:31:28;;;;;;;13.50;8.63;;;19.10;99.80;;;;;;5043446;28;20445;-70
2022/10/12 08:33:56;;;;;;;5.43;3.60;;;19.70;99.50;;;;;;5044466;28;20432;-70
2022/10/12 08:36:21;;;;;;;10.40;6.00;;;18.50;99.10;;;;;;5037657;28;20425;-70
2022/10/12 08:38:52;;;;;;;11.70;6.87;;;18.10;99.90;;;;;;5037657;28;20416;-70
2022/10/12 08:41:49;;;;;;;13.00;8.83;;;18.70;99.90;;;;;;5039548;28;20183;-72
2022/10/12 08:44:33;;;;;;;5.63;2.53;;;18.70;99.40;;;;;;5035107;28;20480;-69
2022/10/12 08:47:22;;;;;;;4.70;3.93;;;17.30;99.90;;;;;;5031786;28;20422;-68
2022/10/12 08:49:49;;;;;;;8.17;3.27;;;17.00;99.90;;;;;;5007360;28;20451;-68
2022/10/12 08:52:36;;;;;;;7.23;3.80;;;17.70;99.90;;;;;;5023867;28;20444;-69
2022/10/12 08:55:34;;;;;;;10.90;6.97;;;18.60;99.90;;;;;;5030673;28;20416;-70
2022/10/12 08:58:00;;;;;;;3.37;2.50;;;18.40;99.90;;;;;;5026565;28;20954;-69
2022/10/12 09:00:28;;;;;;;6.73;2.80;;;18.10;99.90;;;;;;5031127;28;20412;-69
2022/10/12 09:03:06;;;;;;;4.10;2.83;;;18.90;99.50;;;;;;5030961;28;20522;-70
2022/10/12 09:06:06;;;;;;;11.13;2.90;;;20.30;98.00;;;;;;5000415;28;20861;-69
2022/10/12 09:09:26;;;;;;;5.77;2.90;;;20.30;97.50;;;;;;5031200;28;20435;-70
2022/10/12 09:12:03;;;;;;;4.70;2.67;;;19.70;96.70;;;;;;4977137;28;21013;-70
2022/10/12 09:14:37;;;;;;;5.37;3.03;;;18.70;97.50;;;;;;5030962;28;20426;-70
2022/10/12 09:17:32;;;;;;;8.13;2.90;;;17.80;99.90;;;;;;5031533;28;20435;-70
2022/10/12 09:20:30;;;;;;;6.63;2.70;;;17.40;99.90;;;;;;5029885;28;20500;-70
2022/10/12 09:23:01;;;;;;;4.30;2.93;;;18.00;99.90;;;;;;5027225;28;20449;-70
2022/10/12 09:25:27;;;;;;;11.33;2.77;;;18.20;99.90;;;;;;4998781;28;20892;-70
2022/10/12 09:27:56;;;;;;;6.10;3.70;;;18.00;99.90;;;;;;5030694;28;20405;-70
2022/10/12 09:30:21;;;;;;;6.90;2.93;;;18.00;99.90;;;;;;5030731;28;20819;-70
2022/10/12 09:32:47;;;;;;;6.53;3.43;;;18.50;99.80;;;;;;5030668;28;20430;-70
2022/10/12 09:35:13;;;;;;;8.37;3.53;;;18.20;99.00;;;;;;5030661;28;20256;-70
2022/10/12 09:37:39;;;;;;;9.90;3.40;;;18.00;98.10;;;;;;5030850;28;20176;-70
2022/10/12 09:40:10;;;;;;;5.63;2.87;;;16.70;99.90;;;;;;5030882;28;20903;-70
2022/10/12 09:42:36;;;;;;;6.80;2.73;;;16.80;99.90;;;;;;5033333;28;20522;-70
2022/10/12 09:45:14;;;;;;;3.30;2.10;;;16.00;99.90;;;;;;5023369;28;20517;-70
2022/10/12 09:47:40;;;;;;;4.90;2.57;;;15.80;99.90;;;;;;5031676;28;20444;-69
2022/10/12 09:50:07;;;;;;;7.60;2.70;;;15.70;99.90;;;;;;5022886;28;20418;-69
2022/10/12 09:52:35;;;;;;;7.37;2.90;;;15.50;99.90;;;;;;5033549;28;20207;-68
2022/10/12 09:55:04;;;;;;;5.80;3.10;;;15.20;99.90;;;;;;5026743;28;20513;-69
2022/10/12 09:57:38;;;;;;;3.33;3.03;;;15.30;99.90;;;;;;5034161;28;20989;-69
2022/10/12 10:00:25;;;;;;;9.03;3.77;;;15.50;99.90;;;;;;5033906;28;20406;-69
2022/10/12 10:02:53;;;;;;;11.80;3.20;;;15.70;99.90;;;;;;5005506;28;20886;-69
2022/10/12 10:05:25;;;;;;;5.00;2.80;;;15.40;99.90;;;;;;5033363;28;20762;-69
2022/10/12 10:07:51;;;;;;;4.37;2.30;;;15.10;99.90;;;;;;5027907;28;20446;-69
2022/10/12 10:10:22;;;;;;;4.00;2.27;;;15.40;99.90;;;;;;5033784;28;20440;-69
2022/10/12 10:12:54;;;;;;;6.40;2.33;;;15.60;99.90;;;;;;5033670;28;20276;-69
2022/10/12 10:15:39;;;;;;;4.93;2.30;;;15.60;99.90;;;;;;5015849;28;20457;-69
2022/10/12 10:18:18;;;;;;;6.80;3.30;;;15.50;99.90;;;;;;4993284;28;20460;-69
2022/10/12 10:20:56;;;;;;;4.80;2.40;;;15.40;99.90;;;;;;5001655;28;20411;-69
2022/10/12 10:23:26;;;;;;;6.60;2.50;;;15.50;99.90;;;;;;5013585;28;20453;-72
2022/10/12 10:26:04;;;;;;;4.63;2.80;;;15.50;99.90;;;;;;5011291;28;20458;-70
2022/10/12 10:28:32;;;;;;;6.03;2.37;;;15.50;99.90;;;;;;5013865;28;20916;-71
2022/10/12 10:31:16;;;;;;;4.93;2.43;;;15.30;99.90;;;;;;5019243;28;20458;-71
2022/10/12 10:33:42;;;;;;;5.23;2.10;;;15.20;99.90;;;;;;5032610;28;20501;-69
2022/10/12 10:36:23;;;;;;;5.03;3.00;;;15.10;99.90;;;;;;5033770;28;20435;-72
2022/10/12 10:39:07;;;;;;;4.07;2.40;;;14.90;99.90;;;;;;5033640;28;20488;-70
2022/10/12 10:41:41;;;;;;;4.30;2.27;;;15.10;99.90;;;;;;5032444;28;20410;-71
2022/10/12 10:44:30;;;;;;;5.73;2.60;;;15.20;99.90;;;;;;5033563;28;20441;-70
2022/10/12 10:47:03;;;;;;;2.33;1.60;;;15.10;99.90;;;;;;5033231;28;20929;-69
2022/10/12 10:49:43;;;;;;;5.40;1.97;;;15.00;99.90;;;;;;5010157;28;20429;-70
2022/10/12 10:52:25;;;;;;;3.10;1.90;;;15.30;99.90;;;;;;5012099;28;20411;-69
2022/10/12 10:55:09;;;;;;;7.40;2.00;;;15.40;99.90;;;;;;5010942;28;20450;-69
2022/10/12 10:57:39;;;;;;;8.27;2.40;;;15.40;99.90;;;;;;5013217;28;20972;-70
2022/10/12 11:00:12;;;;;;;3.93;1.50;;;15.50;99.90;;;;;;5012512;28;20408;-69
2022/10/12 11:02:47;;;;;;;6.07;1.80;;;15.40;99.90;;;;;;5013285;28;20530;-69
2022/10/12 11:05:36;;;;;;;5.63;2.60;;;15.40;99.90;;;;;;5013269;28;20542;-70
2022/10/12 11:08:08;;;;;;;3.27;1.57;;;15.50;99.90;;;;;;5014251;28;20446;-69
2022/10/12 11:11:05;;;;;;;6.87;2.10;;;15.50;99.90;;;;;;4997605;28;20467;-69
2022/10/12 11:13:55;;;;;;;3.20;0.97;;;15.60;99.90;;;;;;4992117;28;20444;-69
2022/10/12 11:16:38;;;;;;;5.40;1.37;;;15.30;99.90;;;;;;4991885;28;20491;-70
2022/10/12 11:19:32;;;;;;;5.53;2.20;;;15.20;99.90;;;;;;4991947;28;20413;-69
2022/10/12 11:22:11;;;;;;;3.57;1.77;;;15.20;99.90;;;;;;5010381;28;21030;-69
2022/10/12 11:24:54;;;;;;;3.80;1.17;;;15.40;99.90;;;;;;5013228;28;20893;-69
2022/10/12 11:27:31;;;;;;;6.23;3.30;;;15.40;99.90;;;;;;5021740;28;20431;-70
2022/10/12 11:30:00;;;;;;;1.80;1.23;;;15.30;99.90;;;;;;5008985;28;20823;-70
2022/10/12 11:32:33;;;;;;;4.50;1.87;;;15.30;99.90;;;;;;5011570;28;20770;-70
2022/10/12 11:35:02;;;;;;;9.27;1.87;;;15.40;99.90;;;;;;5011623;28;20407;-70
2022/10/12 11:37:38;;;;;;;2.83;1.50;;;15.30;99.90;;;;;;5011684;28;20788;-70
2022/10/12 11:40:16;;;;;;;1.63;1.53;;;15.40;99.90;;;;;;5011266;28;20443;-70
2022/10/12 11:42:41;;;;;;;1.80;1.40;;;15.50;99.90;;;;;;5012650;28;20451;-70
2022/10/12 11:45:23;;;;;;;3.63;1.17;;;15.30;99.90;;;;;;5004149;28;20449;-70
2022/10/12 11:47:56;;;;;;;5.53;1.57;;;15.50;99.90;;;;;;4996150;28;20190;-71
2022/10/12 11:50:27;;;;;;;2.60;1.40;;;15.60;99.90;;;;;;4996646;28;20412;-70
2022/10/12 11:52:55;;;;;;;3.47;1.43;;;15.90;99.90;;;;;;5011197;28;20430;-70
2022/10/12 11:55:29;;;;;;;4.40;1.53;;;16.20;99.90;;;;;;5012408;28;20485;-69
2022/10/12 11:58:00;;;;;;;3.70;1.40;;;16.40;99.90;;;;;;5012500;28;20417;-70
2022/10/12 12:00:54;;;;;;;3.60;1.40;;;16.30;99.90;;;;;;5012896;28;20891;-70
2022/10/12 12:03:44;;;;;;;2.47;1.40;;;16.40;99.90;;;;;;5013179;28;20601;-69
2022/10/12 12:06:53;;;;;;;5.07;1.20;;;16.30;99.90;;;;;;5020171;28;20543;-70
2022/10/12 12:09:30;;;;;;;4.83;1.83;;;16.30;99.90;;;;;;5010486;28;20790;-71
2022/10/12 12:12:17;;;;;;;2.00;1.27;;;16.20;99.90;;;;;;5027448;28;20411;-70
2022/10/12 12:14:52;;;;;;;7.10;1.83;;;16.10;99.90;;;;;;5031911;28;20489;-70
2022/10/12 12:17:17;;;;;;;3.43;1.50;;;16.10;99.90;;;;;;5032054;28;20410;-69
2022/10/12 12:19:48;;;;;;;4.30;1.47;;;16.00;99.90;;;;;;5030607;28;20411;-70
2022/10/12 12:22:32;;;;;;;2.57;1.20;;;16.00;99.50;;;;;;5016659;28;20715;-70
2022/10/12 12:25:09;;;;;;;4.70;1.00;;;15.90;99.90;;;;;;5011789;28;20449;-70
2022/10/12 12:27:37;;;;;;;6.70;1.87;;;16.20;99.30;;;;;;5026682;28;20408;-71
2022/10/12 12:30:17;;;;;;;6.50;2.10;;;16.20;98.50;;;;;;5032304;28;20411;-70
2022/10/12 12:32:48;;;;;;;3.07;1.30;;;16.10;99.20;;;;;;5031857;28;20481;-70
2022/10/12 12:35:24;;;;;;;1.77;1.07;;;16.30;99.30;;;;;;5031105;28;20419;-70
2022/10/12 12:38:16;;;;;;;2.50;1.20;;;16.40;97.30;;;;;;5031413;28;20429;-70
2022/10/12 12:40:57;;;;;;;2.03;1.07;;;16.40;98.10;;;;;;5005530;28;20412;-70
2022/10/12 12:43:29;;;;;;;3.80;1.47;;;16.50;98.70;;;;;;5031500;28;20428;-71
2022/10/12 12:46:00;;;;;;;7.70;2.03;;;16.30;97.90;;;;;;5031212;28;20960;-69
2022/10/12 12:48:38;;;;;;;4.70;1.37;;;16.40;97.80;;;;;;5031651;28;20464;-68
2022/10/12 12:51:08;;;;;;;6.03;1.20;;;16.20;98.20;;;;;;5031884;28;20494;-68
2022/10/12 12:53:37;;;;;;;2.07;1.20;;;16.10;98.40;;;;;;5031560;28;20511;-69
2022/10/12 12:56:42;;;;;;;1.93;1.30;;;16.10;98.30;;;;;;5031165;28;20428;-69
2022/10/12 12:59:22;;;;;;;1.50;1.27;;;16.30;97.70;;;;;;4980756;28;20433;-69
2022/10/12 13:01:59;;;;;;;1.50;1.17;;;16.40;97.20;;;;;;5011830;28;20500;-70
2022/10/12 13:04:37;;;;;;;2.65;1.10;;;16.10;98.20;;;;;;5001386;28;20451;-70
2022/10/12 13:07:19;;;;;;;3.70;1.30;;;16.30;98.40;;;;;;5031333;28;20796;-69